地図

経路データ

SID SEASON NUMBER BASIN SUBBASIN NAME ISO_TIME NATURE LAT LON WMO_WIND WMO_PRES WMO_AGENCY TRACK_TYPE DIST2LAND LANDFALL IFLAG USA_AGENCY USA_ATCF_ID USA_LAT USA_LON USA_RECORD USA_STATUS USA_WIND USA_PRES USA_SSHS USA_R34_NE USA_R34_SE USA_R34_SW USA_R34_NW USA_R50_NE USA_R50_SE USA_R50_SW USA_R50_NW USA_R64_NE USA_R64_SE USA_R64_SW USA_R64_NW USA_POCI USA_ROCI USA_RMW USA_EYE TOKYO_LAT TOKYO_LON TOKYO_GRADE TOKYO_WIND TOKYO_PRES TOKYO_R50_DIR TOKYO_R50_LONG TOKYO_R50_SHORT TOKYO_R30_DIR TOKYO_R30_LONG TOKYO_R30_SHORT TOKYO_LAND CMA_LAT CMA_LON CMA_CAT CMA_WIND CMA_PRES HKO_LAT HKO_LON HKO_CAT HKO_WIND HKO_PRES NEWDELHI_LAT NEWDELHI_LON NEWDELHI_GRADE NEWDELHI_WIND NEWDELHI_PRES NEWDELHI_CI NEWDELHI_DP NEWDELHI_POCI REUNION_LAT REUNION_LON REUNION_TYPE REUNION_WIND REUNION_PRES REUNION_TNUM REUNION_CI REUNION_RMW REUNION_R34_NE REUNION_R34_SE REUNION_R34_SW REUNION_R34_NW REUNION_R50_NE REUNION_R50_SE REUNION_R50_SW REUNION_R50_NW REUNION_R64_NE REUNION_R64_SE REUNION_R64_SW REUNION_R64_NW BOM_LAT BOM_LON BOM_TYPE BOM_WIND BOM_PRES BOM_TNUM BOM_CI BOM_RMW BOM_R34_NE BOM_R34_SE BOM_R34_SW BOM_R34_NW BOM_R50_NE BOM_R50_SE BOM_R50_SW BOM_R50_NW BOM_R64_NE BOM_R64_SE BOM_R64_SW BOM_R64_NW BOM_ROCI BOM_POCI BOM_EYE BOM_POS_METHOD BOM_PRES_METHOD NADI_LAT NADI_LON NADI_CAT NADI_WIND NADI_PRES WELLINGTON_LAT WELLINGTON_LON WELLINGTON_WIND WELLINGTON_PRES DS824_LAT DS824_LON DS824_STAGE DS824_WIND DS824_PRES TD9636_LAT TD9636_LON TD9636_STAGE TD9636_WIND TD9636_PRES TD9635_LAT TD9635_LON TD9635_WIND TD9635_PRES TD9635_ROCI NEUMANN_LAT NEUMANN_LON NEUMANN_CLASS NEUMANN_WIND NEUMANN_PRES MLC_LAT MLC_LON MLC_CLASS MLC_WIND MLC_PRES USA_GUST BOM_GUST BOM_GUST_PER REUNION_GUST REUNION_GUST_PER USA_SEAHGT USA_SEARAD_NE USA_SEARAD_SE USA_SEARAD_SW USA_SEARAD_NW STORM_SPEED STORM_DIR
1971240N13266 1971 100 EP MM LILY 1971-08-28 00:00:00 TS 13.3000 -94.2000 25 hurdat_epa main 248 248 O________OO___ hurdat_epa EP121971 13.3000 -94.2000 TD 25 -1 13.3000 -94.2000 TC 25 13.3000 -94.2000 1 8 285
1971240N13266 1971 100 EP MM LILY 1971-08-28 03:00:00 TS 13.4048 -94.6002 main 271 271 P________PP___ EP121971 13.4101 -94.5999 TD 25 -1 13.4101 -94.5999 TC 25 13.3834 -94.6012 1 8 284
1971240N13266 1971 100 EP MM LILY 1971-08-28 06:00:00 TS 13.4926 -95.0004 25 hurdat_epa main 278 250 O________OP___ hurdat_epa EP121971 13.5000 -95.0000 TD 25 -1 13.5000 -95.0000 TC 25 13.4632 -95.0020 1 8 281
1971240N13266 1971 100 EP MM LILY 1971-08-28 09:00:00 TS 13.5532 -95.4004 main 250 239 P________PP___ EP121971 13.5574 -95.4001 TD 25 -1 13.5574 -95.4001 TC 25 13.5364 -95.4018 1 8 278
1971240N13266 1971 100 EP MM LILY 1971-08-28 12:00:00 TS 13.6000 -95.8000 25 hurdat_epa main 239 228 O________OO___ hurdat_epa EP121971 13.6000 -95.8000 TD 25 -1 13.6000 -95.8000 TC 25 13.6000 -95.8000 1 8 277
1971240N13266 1971 100 EP MM LILY 1971-08-28 15:00:00 TS 13.6448 -96.1936 main 228 212 P________PP___ EP121971 13.6424 -96.1926 TD 27 -1 13.6424 -96.1926 TC 27 13.6543 -96.1980 1 8 277
1971240N13266 1971 100 EP MM LILY 1971-08-28 18:00:00 TS 13.7024 -96.6012 30 hurdat_epa main 212 204 O________OP___ hurdat_epa EP121971 13.7000 -96.6000 TD 30 -1 13.7000 -96.6000 TC 30 13.7119 -96.6057 1 8 280
1971240N13266 1971 100 EP MM LILY 1971-08-28 21:00:00 TS 13.7856 -97.0292 main 206 204 P________PP___ EP121971 13.7849 -97.0276 TD 30 -1 13.7849 -97.0276 TC 30 13.7885 -97.0356 1 9 283
1971240N13266 1971 100 EP MM LILY 1971-08-29 00:00:00 TS 13.9000 -97.5000 30 hurdat_epa main 213 213 O________OO___ hurdat_epa EP121971 13.9000 -97.5000 TD 30 -1 13.9000 -97.5000 TC 30 13.9000 -97.5000 1 10 284
1971240N13266 1971 100 EP MM LILY 1971-08-29 03:00:00 TS 14.0349 -98.0365 main 224 211 P________PP___ EP121971 14.0275 -98.0351 TD 30 -1 14.0275 -98.0351 TC 30 14.0645 -98.0421 1 11 286
1971240N13266 1971 100 EP MM LILY 1971-08-29 06:00:00 TS 14.2126 -98.6029 30 hurdat_epa main 219 213 O________OP___ hurdat_epa EP121971 14.2000 -98.6000 TD 30 -1 14.2000 -98.6000 TC 30 14.2631 -98.6145 1 12 291
1971240N13266 1971 100 EP MM LILY 1971-08-29 09:00:00 TS 14.4500 -99.1738 main 211 208 P________PP___ EP121971 14.4425 -99.1724 TD 30 -1 14.4425 -99.1724 TC 30 14.4801 -99.1797 1 12 295
1971240N13266 1971 100 EP MM LILY 1971-08-29 12:00:00 TS 14.7000 -99.7000 30 hurdat_epa main 214 204 O________OO___ hurdat_epa EP121971 14.7000 -99.7000 TD 30 -1 14.7000 -99.7000 TC 30 14.7000 -99.7000 2 10 296
1971240N13266 1971 100 EP MM LILY 1971-08-29 15:00:00 TS 14.9024 -100.126 main 205 194 P________PP___ EP121971 14.9073 -100.130 TD 37 0 14.9073 -100.130 TC 37 14.8829 -100.110 2 9 297
1971240N13266 1971 100 EP MM LILY 1971-08-29 18:00:00 TS 15.0938 -100.495 45 hurdat_epa main 198 193 O________OP___ hurdat_epa EP121971 15.1000 -100.500 TS 45 0 15.1000 -100.500 TC 45 15.0688 -100.474 2 8 299
1971240N13266 1971 100 EP MM LILY 1971-08-29 21:00:00 TS 15.2819 -100.827 main 195 190 P________PP___ EP121971 15.2847 -100.828 TS 45 0 15.2847 -100.828 TC 45 15.2704 -100.826 2 8 301
1971240N13266 1971 100 EP MM LILY 1971-08-30 00:00:00 TS 15.5000 -101.200 45 hurdat_epa main 194 179 O________OO___ hurdat_epa EP121971 15.5000 -101.200 TS 45 0 15.5000 -101.200 TC 45 15.5000 -101.200 2 10 300
1971240N13266 1971 100 EP MM LILY 1971-08-30 03:00:00 TS 15.7850 -101.732 main 179 174 P________PP___ EP121971 15.7852 -101.742 TS 45 0 15.7852 -101.742 TC 45 15.7840 -101.690 2 12 300
1971240N13266 1971 100 EP MM LILY 1971-08-30 06:00:00 TS 16.0987 -102.280 45 hurdat_epa main 185 173 O________OP___ hurdat_epa EP121971 16.1000 -102.300 TS 45 0 16.1000 -102.300 TC 45 16.0933 -102.201 2 12 303
1971240N13266 1971 100 EP MM LILY 1971-08-30 09:00:00 TS 16.4131 -102.739 main 173 151 P________PP___ EP121971 16.4149 -102.753 TS 47 0 16.4149 -102.753 TC 47 16.4059 -102.687 2 10 307
1971240N13266 1971 100 EP MM LILY 1971-08-30 12:00:00 TS 16.7000 -103.100 50 hurdat_epa main 154 140 O________OO___ hurdat_epa EP121971 16.7000 -103.100 TS 50 0 16.7000 -103.100 TC 50 16.7000 -103.100 3 8 311
1971240N13266 1971 100 EP MM LILY 1971-08-30 15:00:00 TS 16.9110 -103.340 main 140 127 P________PP___ EP121971 16.9074 -103.330 TS 57 0 16.9074 -103.330 TC 57 16.9256 -103.380 3 6 315
1971240N13266 1971 100 EP MM LILY 1971-08-30 18:00:00 TS 17.1068 -103.517 65 hurdat_epa main 127 109 O________OP___ hurdat_epa EP121971 17.1000 -103.500 HU 65 1 17.1000 -103.500 TC 65 17.1342 -103.584 3 6 320
1971240N13266 1971 100 EP MM LILY 1971-08-30 21:00:00 TS 17.3321 -103.709 main 113 89 P________PP___ EP121971 17.3275 -103.700 HU 65 1 17.3275 -103.700 TC 65 17.3507 -103.746 3 6 323
1971240N13266 1971 100 EP MM LILY 1971-08-31 00:00:00 TS 17.6000 -103.900 65 hurdat_epa main 89 76 O________OO___ hurdat_epa EP121971 17.6000 -103.900 HU 65 1 17.6000 -103.900 TC 65 17.6000 -103.900 4 7 328
1971240N13266 1971 100 EP MM LILY 1971-08-31 03:00:00 TS 17.9280 -104.095 main 77 71 P________PP___ EP121971 17.9350 -104.100 HU 67 1 17.9350 -104.100 TC 67 17.9001 -104.075 4 8 331
1971240N13266 1971 100 EP MM LILY 1971-08-31 06:00:00 TS 18.2910 -104.295 70 hurdat_epa main 74 49 O________OP___ hurdat_epa EP121971 18.3000 -104.300 HU 70 1 18.3000 -104.300 TC 70 18.2430 -104.271 4 8 332
1971240N13266 1971 100 EP MM LILY 1971-08-31 09:00:00 TS 18.6594 -104.511 main 39 22 P________PP___ EP121971 18.6650 -104.515 HU 72 1 18.6650 -104.515 TC 72 18.6145 -104.482 4 8 332
1971240N13266 1971 100 EP MM LILY 1971-08-31 12:00:00 TS 19.0000 -104.700 75 hurdat_epa main 22 0 O________OO___ hurdat_epa EP121971 19.0000 -104.700 HU 75 1 19.0000 -104.700 TC 75 19.0000 -104.700 4 7 334
1971240N13266 1971 100 EP MM LILY 1971-08-31 15:00:00 TS 19.2650 -104.823 main 0 0 P________P____ EP121971 19.2650 -104.823 HU 50 0 19.2650 -104.823 TC 50 4 5 339
1971240N13266 1971 100 EP MM LILY 1971-08-31 18:00:00 MX 19.5000 -104.900 25 hurdat_epa main 0 0 O________O____ hurdat_epa EP121971 19.5000 -104.900 TD 25 -1 19.5000 -104.900 25 4 5 347
1971240N13266 1971 100 EP MM LILY 1971-08-31 21:00:00 MX 19.7425 -104.935 main 0 0 P________P____ EP121971 19.7425 -104.935 TD 25 -1 19.7425 -104.935 25 4 5 349
1971240N13266 1971 100 EP MM LILY 1971-09-01 00:00:00 MX 20.0000 -105.000 25 hurdat_epa main 0 0 O________O____ hurdat_epa EP121971 20.0000 -105.000 TD 25 -1 20.0000 -105.000 25 6 339
1971240N13266 1971 100 EP MM LILY 1971-09-01 03:00:00 MX 20.3075 -105.162 main 0 0 P________P____ EP121971 20.3075 -105.162 TD 25 -1 20.3075 -105.162 25 7 328
1971240N13266 1971 100 EP MM LILY 1971-09-01 06:00:00 MX 20.6000 -105.400 25 hurdat_epa main 11 10 O________O____ hurdat_epa EP121971 20.6000 -105.400 TD 25 -1 20.6000 -105.400 25 7 316
1971240N13266 1971 100 EP MM LILY 1971-09-01 09:00:00 MX 20.8226 -105.687 main 20 20 P________P____ EP121971 20.8226 -105.687 TD 25 -1 20.8226 -105.687 25 7 306
1971240N13266 1971 100 EP MM LILY 1971-09-01 12:00:00 MX 21.0000 -106.000 25 hurdat_epa main 56 O________O____ hurdat_epa EP121971 21.0000 -106.000 TD 25 -1 21.0000 -106.000 25 7 301

IBTrACS Databaseについて

本データベースは、米国NOAAが公開する1842年以降の世界の熱帯低気圧のベストトラックデータアーカイブInternational Best Track Archive for Climate Stewardship (IBTrACS)を、ウェブで閲覧しやすい形式に変換したものです。

最終更新日:2021-10-08